Time;durP1;ratioP1;P1;durP2;ratioP2;P2;SDS_P1;SDS_P2;PMS_P1;PMS_P2;Temp;Humidity;BMP_temperature;BMP_pressure;BME280_temperature;BME280_humidity;BME280_pressure;Samples;Min_cycle;Max_cycle;Signal;HPM_P1;HPM_P2
2021/09/20 00:01:03;;;;;;;;;;;;;;;5.22;83.14;99987.09;5008708;28;20075;-78
2021/09/20 00:03:30;;;;;;;;;;;;;;;5.25;83.47;100000.91;5032942;28;19928;-77
2021/09/20 00:05:56;;;;;;;;;;;;;;;5.28;83.59;99989.75;5040144;28;19984;-77
2021/09/20 00:08:21;;;;;;;;;;;;;;;5.25;83.41;99998.34;5009965;28;20510;-78
2021/09/20 00:10:47;;;;;;;;;;;;;;;5.21;83.54;99987.94;5009837;28;19928;-77
2021/09/20 00:13:12;;;;;;;;;;;;;;;5.23;83.72;99987.13;5010544;28;19921;-76
2021/09/20 00:15:38;;;;;;;;;;;;;;;5.19;82.92;99980.16;5005932;28;19936;-76
2021/09/20 00:18:04;;;;;;;;;;;;;;;5.16;83.31;99989.59;5024040;28;19929;-77
2021/09/20 00:20:29;;;;;;;;;;;;;;;5.21;83.83;99968.16;5014498;28;19925;-77
2021/09/20 00:22:55;;;;;;;;;;;;;;;5.23;83.46;99968.19;5024843;28;20126;-77
2021/09/20 00:25:21;;;;;;;;;;;;;;;5.23;83.60;99970.75;5007756;28;19921;-77
2021/09/20 00:27:47;;;;;;;;;;;;;;;5.27;84.10;99969.97;5009227;28;19921;-77
2021/09/20 00:30:13;;;;;;;;;;;;;;;5.26;83.76;99970.81;5008917;28;20304;-76
2021/09/20 00:32:38;;;;;;;;;;;;;;;5.24;83.70;99972.50;4998552;28;19928;-76
2021/09/20 00:35:05;;;;;;;;;;;;;;;5.30;84.00;99967.44;5023617;28;20277;-77
2021/09/20 00:37:31;;;;;;;;;;;;;;;5.28;84.18;99964.84;5008681;28;21083;-76
2021/09/20 00:39:56;;;;;;;;;;;;;;;5.24;83.56;99969.91;5031259;28;19994;-78
2021/09/20 00:42:22;;;;;;;;;;;;;;;5.28;84.37;99966.53;5014056;28;19968;-77
2021/09/20 00:44:47;;;;;;;;;;;;;;;5.31;84.34;99982.06;5000225;28;19925;-77
2021/09/20 00:47:13;;;;;;;;;;;;;;;5.33;83.68;99982.97;5016472;28;19921;-77
2021/09/20 00:49:38;;;;;;;;;;;;;;;5.27;84.11;99970.84;5009674;28;20685;-77
2021/09/20 00:52:04;;;;;;;;;;;;;;;5.22;84.01;99972.47;5010637;28;20283;-76
2021/09/20 00:54:30;;;;;;;;;;;;;;;5.24;84.02;99975.06;5006010;28;19936;-76
2021/09/20 00:56:56;;;;;;;;;;;;;;;5.25;83.58;99967.38;5008297;28;20487;-77
2021/09/20 00:59:22;;;;;;;;;;;;;;;5.27;84.64;99965.69;5022083;28;19947;-76
2021/09/20 01:01:48;;;;;;;;;;;;;;;5.27;84.10;99964.81;5040655;28;19921;-77
2021/09/20 01:04:14;;;;;;;;;;;;;;;5.31;84.40;99958.84;4999326;28;19929;-76
2021/09/20 01:06:39;;;;;;;;;;;;;;;5.37;84.46;99950.31;5006895;28;19925;-76
2021/09/20 01:09:05;;;;;;;;;;;;;;;5.46;84.24;99947.91;5029864;28;20024;-77
2021/09/20 01:11:31;;;;;;;;;;;;;;;5.50;84.25;99947.09;5040594;28;19934;-77
2021/09/20 01:13:57;;;;;;;;;;;;;;;5.50;84.12;99946.22;5037191;28;19916;-76
2021/09/20 01:16:22;;;;;;;;;;;;;;;5.53;84.10;99947.13;5023642;28;21000;-75
2021/09/20 01:18:48;;;;;;;;;;;;;;;5.54;84.06;99978.97;5008526;28;19921;-76
2021/09/20 01:21:15;;;;;;;;;;;;;;;5.53;84.29;99956.59;5038817;28;20431;-76
2021/09/20 01:23:42;;;;;;;;;;;;;;;5.54;84.28;99956.59;5012856;28;19921;-77
2021/09/20 01:26:09;;;;;;;;;;;;;;;5.53;83.61;99960.03;5011413;28;20426;-78
2021/09/20 01:28:34;;;;;;;;;;;;;;;5.41;83.54;99946.94;5010527;28;19922;-77
2021/09/20 01:31:00;;;;;;;;;;;;;;;5.43;84.18;99946.13;5005351;28;19926;-77
2021/09/20 01:33:25;;;;;;;;;;;;;;;5.43;84.10;99947.84;5033748;28;20407;-77
2021/09/20 01:35:51;;;;;;;;;;;;;;;5.15;83.69;99897.56;5024002;28;20352;-76
2021/09/20 01:38:18;;;;;;;;;;;;;;;5.40;84.33;99946.09;5064226;28;19936;-76
2021/09/20 01:40:43;;;;;;;;;;;;;;;5.38;84.27;99936.56;5028722;28;19922;-76
2021/09/20 01:43:09;;;;;;;;;;;;;;;5.41;84.09;99939.22;5008323;28;20063;-77
2021/09/20 01:45:34;;;;;;;;;;;;;;;5.44;84.61;99934.09;5024314;28;19928;-77
2021/09/20 01:48:00;;;;;;;;;;;;;;;5.42;83.88;99941.81;5007849;28;19922;-78
2021/09/20 01:50:25;;;;;;;;;;;;;;;5.48;84.08;99941.03;5009658;28;19922;-77
2021/09/20 01:52:51;;;;;;;;;;;;;;;5.53;83.99;99941.09;5040590;28;19933;-77
2021/09/20 01:55:17;;;;;;;;;;;;;;;5.55;84.37;99935.09;5009661;28;20304;-78
2021/09/20 01:57:42;;;;;;;;;;;;;;;5.63;84.19;99936.94;4995339;28;19921;-78
2021/09/20 02:00:09;;;;;;;;;;;;;;;5.67;84.15;99931.81;5034745;28;19921;-78
2021/09/20 02:02:38;;;;;;;;;;;;;;;5.66;83.96;99926.66;5009201;28;19921;-78
2021/09/20 02:05:04;;;;;;;;;;;;;;;5.62;84.06;99930.91;5049909;28;19921;-77
2021/09/20 02:07:30;;;;;;;;;;;;;;;5.61;83.57;99924.00;5026884;28;19924;-77
2021/09/20 02:09:55;;;;;;;;;;;;;;;5.62;84.21;99932.59;5025274;28;19979;-77
2021/09/20 02:12:21;;;;;;;;;;;;;;;5.63;83.72;99926.59;5036196;28;20293;-78
2021/09/20 02:14:46;;;;;;;;;;;;;;;5.67;83.91;99939.56;5027661;28;20098;-77
2021/09/20 02:17:12;;;;;;;;;;;;;;;5.62;83.93;99925.75;5022901;28;19925;-80
2021/09/20 02:19:39;;;;;;;;;;;;;;;5.65;83.78;99923.19;5050838;28;19922;-79
2021/09/20 02:22:05;;;;;;;;;;;;;;;5.63;84.00;99934.34;5057856;28;19925;-79
2021/09/20 02:24:31;;;;;;;;;;;;;;;5.58;83.21;99931.72;5063894;28;19917;-77
2021/09/20 02:26:56;;;;;;;;;;;;;;;5.58;83.67;99931.72;5062122;28;19921;-77
2021/09/20 02:29:22;;;;;;;;;;;;;;;5.54;83.91;99935.94;5029424;28;19932;-77
2021/09/20 02:31:47;;;;;;;;;;;;;;;5.32;83.94;99898.66;5014440;28;19927;-77
2021/09/20 02:34:13;;;;;;;;;;;;;;;5.52;84.11;99934.19;5028037;28;19929;-77
2021/09/20 02:36:38;;;;;;;;;;;;;;;5.48;83.65;99927.25;5006497;28;20373;-78
2021/09/20 02:39:04;;;;;;;;;;;;;;;5.51;83.65;99919.56;5024929;28;20028;-79
2021/09/20 02:41:30;;;;;;;;;;;;;;;5.54;83.37;99928.19;5031806;28;20387;-78
2021/09/20 02:43:55;;;;;;;;;;;;;;;5.52;83.51;99929.88;5008870;28;20082;-78
2021/09/20 02:46:22;;;;;;;;;;;;;;;5.60;83.85;99921.38;5022925;28;20290;-77
2021/09/20 02:48:47;;;;;;;;;;;;;;;5.58;83.62;99929.13;5006078;28;19975;-79
2021/09/20 02:51:13;;;;;;;;;;;;;;;5.58;83.65;99937.72;5009321;28;19951;-77
2021/09/20 02:53:38;;;;;;;;;;;;;;;5.50;83.53;99931.63;5009678;28;19925;-76
2021/09/20 02:56:05;;;;;;;;;;;;;;;5.56;83.87;99910.16;5011852;28;19933;-78
2021/09/20 02:58:30;;;;;;;;;;;;;;;5.51;83.43;99937.63;5006387;28;20453;-78
2021/09/20 03:00:56;;;;;;;;;;;;;;;5.53;83.38;99920.44;5039804;28;19986;-76
2021/09/20 03:03:22;;;;;;;;;;;;;;;5.55;83.64;99918.75;5009925;28;19945;-77
2021/09/20 03:05:48;;;;;;;;;;;;;;;5.58;83.57;99929.97;5007675;28;19925;-78
2021/09/20 03:08:13;;;;;;;;;;;;;;;5.64;83.30;99933.50;5038137;28;19921;-77
2021/09/20 03:10:39;;;;;;;;;;;;;;;5.63;83.45;99932.63;5012837;28;20891;-76
2021/09/20 03:13:05;;;;;;;;;;;;;;;5.55;82.83;99918.75;5023107;28;19925;-78
2021/09/20 03:15:30;;;;;;;;;;;;;;;5.51;83.58;99935.03;5042191;28;20008;-78
2021/09/20 03:17:56;;;;;;;;;;;;;;;5.49;83.22;99936.72;5031012;28;19921;-79
2021/09/20 03:20:22;;;;;;;;;;;;;;;5.49;83.73;99936.72;5057003;28;19964;-79
2021/09/20 03:22:48;;;;;;;;;;;;;;;5.47;83.65;99928.97;5024877;28;19929;-77
2021/09/20 03:25:13;;;;;;;;;;;;;;;5.51;83.71;99935.03;5006455;28;20396;-78
2021/09/20 03:27:39;;;;;;;;;;;;;;;5.48;83.36;99935.00;5007116;28;20060;-76
2021/09/20 03:30:06;;;;;;;;;;;;;;;5.45;83.86;99927.22;5039299;28;19930;-76
2021/09/20 03:32:31;;;;;;;;;;;;;;;5.50;83.70;99936.78;5005850;28;19928;-78
2021/09/20 03:34:57;;;;;;;;;;;;;;;5.47;83.62;99928.09;5003817;28;19925;-77
2021/09/20 03:37:23;;;;;;;;;;;;;;;5.52;83.77;99934.19;5022399;28;20067;-77
2021/09/20 03:39:48;;;;;;;;;;;;;;;5.55;83.90;99929.94;5007050;28;19921;-76
2021/09/20 03:42:14;;;;;;;;;;;;;;;5.63;83.92;99924.88;4982839;28;20393;-77
2021/09/20 03:44:40;;;;;;;;;;;;;;;5.62;82.96;99912.84;5004600;28;19996;-76
2021/09/20 03:47:05;;;;;;;;;;;;;;;5.61;83.26;99934.34;5007479;28;19929;-77
2021/09/20 03:49:31;;;;;;;;;;;;;;;5.58;83.55;99921.38;5021935;28;19960;-76
2021/09/20 03:51:57;;;;;;;;;;;;;;;5.57;83.22;99925.66;5015176;28;19921;-77
2021/09/20 03:54:22;;;;;;;;;;;;;;;5.58;83.10;99929.97;5036674;28;19983;-77
2021/09/20 03:56:48;;;;;;;;;;;;;;;5.53;83.13;99934.22;4996986;28;20013;-76
2021/09/20 03:59:13;;;;;;;;;;;;;;;5.46;82.99;99913.44;5009020;28;19926;-75
2021/09/20 04:01:39;;;;;;;;;;;;;;;5.46;83.14;99928.94;5026821;28;20001;-77
2021/09/20 04:04:04;;;;;;;;;;;;;;;5.50;83.77;99923.88;5013606;28;19926;-76
2021/09/20 04:06:30;;;;;;;;;;;;;;;5.54;83.64;99919.59;5039455;28;19925;-77
2021/09/20 04:09:00;;;;;;;;;;;;;;;5.53;83.90;99935.94;5018931;28;19921;-77
2021/09/20 04:11:26;;;;;;;;;;;;;;;5.59;84.14;99941.19;5049874;28;19964;-77
2021/09/20 04:13:51;;;;;;;;;;;;;;;5.60;83.02;99932.59;5017723;28;20001;-75
2021/09/20 04:16:17;;;;;;;;;;;;;;;5.60;83.06;99932.59;5051232;28;19971;-76
2021/09/20 04:18:43;;;;;;;;;;;;;;;5.64;83.25;99931.78;5001632;28;19921;-77
2021/09/20 04:21:09;;;;;;;;;;;;;;;5.75;83.86;99941.38;5033889;28;19921;-76
2021/09/20 04:23:35;;;;;;;;;;;;;;;5.75;83.08;99936.22;5025473;28;20487;-76
2021/09/20 04:26:01;;;;;;;;;;;;;;;5.69;82.62;99943.03;5034436;28;20334;-77
2021/09/20 04:28:27;;;;;;;;;;;;;;;5.65;83.50;99937.81;5050029;28;19928;-76
2021/09/20 04:30:52;;;;;;;;;;;;;;;5.63;83.11;99940.34;5033224;28;19926;-76
2021/09/20 04:33:19;;;;;;;;;;;;;;;5.68;83.50;99946.47;5047453;28;20412;-75
2021/09/20 04:35:45;;;;;;;;;;;;;;;5.69;82.79;99947.34;5014609;28;20386;-76
2021/09/20 04:38:11;;;;;;;;;;;;;;;5.72;83.46;99948.25;5005594;28;19921;-75
2021/09/20 04:40:37;;;;;;;;;;;;;;;5.71;82.74;99949.09;5013706;28;19921;-75
2021/09/20 04:43:03;;;;;;;;;;;;;;;5.75;82.63;99944.81;5012019;28;19929;-76
2021/09/20 04:45:29;;;;;;;;;;;;;;;5.82;83.13;99954.41;5033146;28;19975;-77
2021/09/20 04:47:55;;;;;;;;;;;;;;;5.75;82.35;99951.72;5034264;28;20020;-76
2021/09/20 04:50:21;;;;;;;;;;;;;;;5.71;82.40;99938.75;5046193;28;19947;-76
2021/09/20 04:52:49;;;;;;;;;;;;;;;5.75;83.09;99952.56;5018451;28;19921;-75
2021/09/20 04:55:15;;;;;;;;;;;;;;;5.79;83.02;99953.50;5034149;28;20467;-77
2021/09/20 04:57:41;;;;;;;;;;;;;;;5.79;83.15;99943.16;5033825;28;19932;-76
2021/09/20 05:00:08;;;;;;;;;;;;;;;5.82;82.94;99946.66;5014624;28;19921;-76
2021/09/20 05:02:33;;;;;;;;;;;;;;;5.81;82.76;99947.50;5013756;28;19922;-76
2021/09/20 05:04:59;;;;;;;;;;;;;;;5.91;83.02;99950.22;5019654;28;19927;-75
2021/09/20 05:07:25;;;;;;;;;;;;;;;5.91;83.28;99950.22;5014135;28;20382;-75
2021/09/20 05:09:51;;;;;;;;;;;;;;;5.93;83.51;99953.69;5030329;28;19921;-78
2021/09/20 05:12:17;;;;;;;;;;;;;;;5.93;82.51;99951.94;5017155;28;19952;-74
2021/09/20 05:14:42;;;;;;;;;;;;;;;5.91;82.40;99945.88;5017041;28;19991;-75
2021/09/20 05:17:08;;;;;;;;;;;;;;;5.92;82.83;99960.53;5004781;28;19925;-78
2021/09/20 05:19:33;;;;;;;;;;;;;;;5.86;82.01;99963.03;5016979;28;20447;-76
2021/09/20 05:21:59;;;;;;;;;;;;;;;5.82;82.05;99963.88;5025765;28;19908;-76
2021/09/20 05:24:28;;;;;;;;;;;;;;;5.84;82.68;99962.19;5038584;28;19933;-77
2021/09/20 05:26:54;;;;;;;;;;;;;;;5.81;82.55;99951.81;5071741;28;19933;-76
2021/09/20 05:29:19;;;;;;;;;;;;;;;5.79;82.78;99951.78;5026034;28;19929;-75
2021/09/20 05:31:45;;;;;;;;;;;;;;;5.87;83.39;99959.63;5005697;28;19921;-76
2021/09/20 05:34:11;;;;;;;;;;;;;;;5.89;82.47;99955.34;5012047;28;19983;-75
2021/09/20 05:36:37;;;;;;;;;;;;;;;5.92;82.62;99957.97;5018886;28;19936;-78
2021/09/20 05:39:03;;;;;;;;;;;;;;;5.94;83.06;99951.09;5033520;28;20439;-76
2021/09/20 05:41:28;;;;;;;;;;;;;;;6.01;82.49;99955.53;5047868;28;19956;-77
2021/09/20 05:43:54;;;;;;;;;;;;;;;5.97;81.96;99952.84;5031336;28;20008;-78
2021/09/20 05:46:19;;;;;;;;;;;;;;;5.90;82.23;99953.63;5050510;28;20016;-75
2021/09/20 05:48:45;;;;;;;;;;;;;;;5.93;82.90;99951.09;5028886;28;20285;-78
2021/09/20 05:51:11;;;;;;;;;;;;;;;5.97;82.98;99951.16;5047491;28;19921;-78
2021/09/20 05:53:37;;;;;;;;;;;;;;;5.97;82.69;99952.84;5015353;28;19927;-78
2021/09/20 05:56:04;;;;;;;;;;;;;;;5.97;82.39;99953.72;5015854;28;20008;-79
2021/09/20 05:58:33;;;;;;;;;;;;;;;6.05;82.34;99951.25;5031920;28;20313;-77
2021/09/20 06:00:59;;;;;;;;;;;;;;;6.08;82.89;99956.47;5015891;28;19927;-76
2021/09/20 06:03:27;;;;;;;;;;;;;;;6.12;82.50;99955.66;5018889;28;19925;-77
2021/09/20 06:05:53;;;;;;;;;;;;;;;6.13;82.96;99957.41;5050624;28;19921;-78
2021/09/20 06:08:20;;;;;;;;;;;;;;;6.22;83.05;99956.63;5016190;28;19925;-75
2021/09/20 06:10:46;;;;;;;;;;;;;;;6.22;82.49;99954.06;5029811;28;19976;-77
2021/09/20 06:13:11;;;;;;;;;;;;;;;6.36;83.02;99976.59;5007128;28;19928;-76
2021/09/20 06:15:37;;;;;;;;;;;;;;;6.24;82.23;99954.06;5026359;28;19981;-77
2021/09/20 06:18:04;;;;;;;;;;;;;;;6.20;81.98;99966.09;5015685;28;20310;-76
2021/09/20 06:20:29;;;;;;;;;;;;;;;6.16;82.21;99965.19;5033446;28;19921;-77
2021/09/20 06:22:55;;;;;;;;;;;;;;;6.22;82.51;99959.22;5012912;28;19932;-76
2021/09/20 06:25:21;;;;;;;;;;;;;;;6.31;83.03;99969.66;5032221;28;19925;-76
2021/09/20 06:27:46;;;;;;;;;;;;;;;6.33;82.28;99967.94;5014522;28;20312;-76
2021/09/20 06:30:13;;;;;;;;;;;;;;;6.30;81.66;99973.09;5048708;28;19925;-75
2021/09/20 06:32:39;;;;;;;;;;;;;;;6.22;82.02;99972.16;5017661;28;19921;-77
2021/09/20 06:35:06;;;;;;;;;;;;;;;6.19;82.02;99969.53;5014474;28;19929;-77
2021/09/20 06:37:31;;;;;;;;;;;;;;;6.18;82.43;99978.97;5017580;28;19921;-78
2021/09/20 06:39:57;;;;;;;;;;;;;;;6.26;82.68;99968.75;4984054;28;20300;-77
2021/09/20 06:42:23;;;;;;;;;;;;;;;6.35;82.51;99975.75;5011505;28;19921;-77
2021/09/20 06:44:50;;;;;;;;;;;;;;;6.35;81.80;99977.44;5031338;28;19928;-76
2021/09/20 06:47:17;;;;;;;;;;;;;;;6.39;82.37;99987.84;5030056;28;19971;-77
2021/09/20 06:49:42;;;;;;;;;;;;;;;6.42;82.26;99984.41;5028799;28;19944;-79
2021/09/20 06:52:11;;;;;;;;;;;;;;;6.37;81.94;99973.16;5028757;28;19921;-78
2021/09/20 06:54:36;;;;;;;;;;;;;;;6.40;82.16;99986.97;5041313;28;20078;-78
2021/09/20 06:57:06;;;;;;;;;;;;;;;6.41;81.65;99990.44;5015579;28;19922;-77
2021/09/20 06:59:32;;;;;;;;;;;;;;;6.41;82.12;99980.94;5001231;28;20016;-78
2021/09/20 07:01:58;;;;;;;;;;;;;;;6.37;81.68;99979.22;5012667;28;20019;-77
2021/09/20 07:04:33;;;;;;;;;;;;;;;6.35;81.93;99982.59;5039383;28;19952;-77
2021/09/20 07:07:17;;;;;;;;;;;;;;;6.37;81.46;99991.25;5014994;28;20400;-78
2021/09/20 07:10:05;;;;;;;;;;;;;;;6.35;82.69;99978.31;5026148;28;20013;-75
2021/09/20 07:12:45;;;;;;;;;;;;;;;6.36;81.87;99994.69;5039004;28;19987;-78
2021/09/20 07:15:20;;;;;;;;;;;;;;;6.33;81.81;99975.69;5001220;28;20396;-78
2021/09/20 07:18:06;;;;;;;;;;;;;;;6.38;82.27;99972.31;5017809;28;19920;-78
2021/09/20 07:20:35;;;;;;;;;;;;;;;6.31;81.92;99977.41;5037314;28;19940;-77
2021/09/20 07:23:01;;;;;;;;;;;;;;;6.29;81.61;99988.59;5038887;28;20549;-77
2021/09/20 07:25:32;;;;;;;;;;;;;;;6.28;82.09;99974.81;5040598;28;19992;-78
2021/09/20 07:28:01;;;;;;;;;;;;;;;6.25;81.81;99966.13;5020449;28;19976;-78
2021/09/20 07:30:26;;;;;;;;;;;;;;;6.20;81.93;99976.41;5043843;28;19946;-77
2021/09/20 07:32:52;;;;;;;;;;;;;;;6.21;81.70;99973.00;5020109;28;19969;-78
2021/09/20 07:35:21;;;;;;;;;;;;;;;6.21;81.73;99978.16;5049142;28;20810;-78
2021/09/20 07:37:48;;;;;;;;;;;;;;;6.24;82.20;99975.63;5052341;28;19924;-77
2021/09/20 07:40:14;;;;;;;;;;;;;;;6.32;82.40;99971.38;5006623;28;19925;-77
2021/09/20 07:42:40;;;;;;;;;;;;;;;6.39;82.06;99966.28;5021608;28;19932;-77
2021/09/20 07:45:08;;;;;;;;;;;;;;;6.51;82.09;99971.56;5041629;28;20023;-78
2021/09/20 07:47:35;;;;;;;;;;;;;;;6.43;81.22;99989.59;5015905;28;19971;-77
2021/09/20 07:50:11;;;;;;;;;;;;;;;6.44;82.22;99974.97;5014041;28;19964;-78
2021/09/20 07:52:42;;;;;;;;;;;;;;;6.42;81.89;99971.50;5018414;28;19962;-77
2021/09/20 07:55:08;;;;;;;;;;;;;;;6.46;81.94;99970.69;5029945;28;20012;-77
2021/09/20 07:57:34;;;;;;;;;;;;;;;6.48;82.15;99969.84;5028638;28;20415;-79
2021/09/20 08:00:00;;;;;;;;;;;;;;;6.48;81.48;99971.56;5030910;28;19931;-77
2021/09/20 08:02:27;;;;;;;;;;;;;;;6.50;81.98;99967.28;5022022;28;20468;-77
2021/09/20 08:04:53;;;;;;;;;;;;;;;6.48;81.86;99969.84;5018746;28;19957;-77
2021/09/20 08:07:19;;;;;;;;;;;;;;;6.51;81.70;99981.91;5013387;28;19929;-77
2021/09/20 08:09:44;;;;;;;;;;;;;;;6.57;81.97;99966.47;5030033;28;19925;-78
2021/09/20 08:12:15;;;;;;;;;;;;;;;6.56;82.11;99975.09;5046173;28;19937;-80
2021/09/20 08:14:44;;;;;;;;;;;;;;;6.53;81.57;99972.47;5012299;28;21371;-76
2021/09/20 08:17:10;;;;;;;;;;;;;;;6.61;82.23;99982.91;5000418;28;19921;-77
2021/09/20 08:19:43;;;;;;;;;;;;;;;6.61;81.63;99975.16;5046278;28;19924;-77
2021/09/20 08:22:10;;;;;;;;;;;;;;;6.58;81.63;99970.81;5013932;28;19921;-77
2021/09/20 08:24:35;;;;;;;;;;;;;;;6.58;81.30;99978.56;4999915;28;19925;-81
2021/09/20 08:27:01;;;;;;;;;;;;;;;6.62;81.90;99967.41;5014679;28;19932;-78
2021/09/20 08:29:32;;;;;;;;;;;;;;;6.67;81.91;99966.59;5016341;28;20516;-78
2021/09/20 08:32:01;;;;;;;;;;;;;;;6.68;81.56;99964.00;4996935;28;19956;-78
2021/09/20 08:34:27;;;;;;;;;;;;;;;6.66;81.77;99964.84;5036173;28;19925;-78
2021/09/20 08:36:52;;;;;;;;;;;;;;;6.66;81.43;99970.88;5045755;28;20306;-78
2021/09/20 08:39:22;;;;;;;;;;;;;;;6.58;81.24;99965.63;4996718;28;19980;-79
2021/09/20 08:41:48;;;;;;;;;;;;;;;6.62;81.52;99963.97;5046026;28;19991;-78
2021/09/20 08:44:14;;;;;;;;;;;;;;;6.68;81.20;99963.16;5011303;28;20385;-78
2021/09/20 08:46:39;;;;;;;;;;;;;;;6.68;81.26;99968.31;5045063;28;19979;-77
2021/09/20 08:49:10;;;;;;;;;;;;;;;6.61;81.00;99962.22;4998752;28;19921;-77
2021/09/20 08:51:36;;;;;;;;;;;;;;;6.64;81.45;99954.47;5045849;28;19971;-76
2021/09/20 08:54:01;;;;;;;;;;;;;;;6.66;81.73;99968.28;5014299;28;19921;-77
2021/09/20 08:56:27;;;;;;;;;;;;;;;6.69;81.46;99954.53;5014802;28;19953;-78
2021/09/20 08:58:52;;;;;;;;;;;;;;;6.71;81.86;99969.19;5044427;28;19921;-78
2021/09/20 09:01:22;;;;;;;;;;;;;;;6.69;81.74;99965.72;4983176;28;20393;-77
2021/09/20 09:03:47;;;;;;;;;;;;;;;6.76;81.81;99962.38;5014532;28;19921;-76
2021/09/20 09:06:27;;;;;;;;;;;;;;;6.85;81.81;99960.69;5045313;28;20025;-76
2021/09/20 09:08:52;;;;;;;;;;;;;;;6.94;81.89;99955.63;5013798;28;19991;-76
2021/09/20 09:11:18;;;;;;;;;;;;;;;7.01;81.67;99953.94;5016205;28;19969;-75
2021/09/20 09:13:46;;;;;;;;;;;;;;;7.02;81.07;99959.13;5045250;28;19921;-76
2021/09/20 09:16:22;;;;;;;;;;;;;;;6.92;80.88;99959.91;5013290;28;19972;-77
2021/09/20 09:19:00;;;;;;;;;;;;;;;6.92;81.40;99952.13;5011074;28;19921;-77
2021/09/20 09:21:37;;;;;;;;;;;;;;;6.93;81.22;99957.34;5013534;28;20396;-76
2021/09/20 09:24:07;;;;;;;;;;;;;;;7.00;81.13;99965.13;5014522;28;20336;-77
2021/09/20 09:26:32;;;;;;;;;;;;;;;6.99;81.25;99973.75;5015269;28;19944;-76
2021/09/20 09:29:12;;;;;;;;;;;;;;;7.01;81.02;99964.28;5002905;28;19921;-78
2021/09/20 09:31:38;;;;;;;;;;;;;;;6.95;80.27;99959.09;5020462;28;19983;-76
2021/09/20 09:34:33;;;;;;;;;;;;;;;6.92;81.17;99963.38;5032521;28;19921;-76
2021/09/20 09:37:06;;;;;;;;;;;;;;;6.88;80.99;99973.66;5033316;28;21068;-77
2021/09/20 09:39:32;;;;;;;;;;;;;;;6.85;81.09;99978.81;5034546;28;19941;-76
2021/09/20 09:41:57;;;;;;;;;;;;;;;6.87;81.39;99954.69;5013761;28;19932;-77
2021/09/20 09:44:28;;;;;;;;;;;;;;;6.97;81.76;99949.59;5015719;28;19921;-78
2021/09/20 09:46:53;;;;;;;;;;;;;;;7.05;81.44;99953.13;5013677;28;19920;-79
2021/09/20 09:49:20;;;;;;;;;;;;;;;7.09;81.18;99965.22;5011808;28;20643;-77
2021/09/20 09:52:00;;;;;;;;;;;;;;;7.16;81.51;99964.44;5044908;28;19926;-78
2021/09/20 09:54:27;;;;;;;;;;;;;;;7.05;80.92;99954.00;5029327;28;19928;-78
2021/09/20 09:57:10;;;;;;;;;;;;;;;7.10;81.24;99951.44;5012555;28;19921;-78
2021/09/20 09:59:35;;;;;;;;;;;;;;;7.15;81.14;99965.28;5046075;28;20011;-79
2021/09/20 10:02:14;;;;;;;;;;;;;;;7.09;80.95;99954.88;5037196;28;19926;-79
2021/09/20 10:04:48;;;;;;;;;;;;;;;7.16;81.41;99946.31;5013473;28;19932;-78
2021/09/20 10:07:20;;;;;;;;;;;;;;;7.29;81.91;99956.75;5039115;28;20376;-79
2021/09/20 10:09:46;;;;;;;;;;;;;;;7.22;81.02;99963.59;5040112;28;19925;-78
2021/09/20 10:12:12;;;;;;;;;;;;;;;7.24;81.38;99951.53;5028800;28;20254;-78
2021/09/20 10:14:40;;;;;;;;;;;;;;;7.29;80.95;99951.56;5044347;28;19961;-79
2021/09/20 10:17:06;;;;;;;;;;;;;;;7.26;80.99;99954.13;5010234;28;19944;-77
2021/09/20 10:19:32;;;;;;;;;;;;;;;7.22;80.59;99958.44;5010149;28;20385;-79
2021/09/20 10:21:58;;;;;;;;;;;;;;;7.28;81.47;99960.19;5012394;28;19948;-79
2021/09/20 10:24:23;;;;;;;;;;;;;;;7.27;80.96;99956.75;5025918;28;19920;-78
2021/09/20 10:26:49;;;;;;;;;;;;;;;7.22;81.30;99956.69;5012417;28;19979;-79
2021/09/20 10:29:16;;;;;;;;;;;;;;;7.22;80.72;99963.59;5010265;28;19921;-78
2021/09/20 10:31:43;;;;;;;;;;;;;;;7.19;81.10;99956.66;5043215;28;19925;-78
2021/09/20 10:34:17;;;;;;;;;;;;;;;7.19;81.28;99959.25;5012913;28;19925;-79
2021/09/20 10:36:51;;;;;;;;;;;;;;;7.27;80.83;99948.09;5026064;28;20395;-77
2021/09/20 10:39:18;;;;;;;;;;;;;;;7.27;81.16;99968.81;5011099;28;19921;-79
2021/09/20 10:41:43;;;;;;;;;;;;;;;7.20;80.67;99967.91;5010649;28;19925;-79
2021/09/20 10:44:10;;;;;;;;;;;;;;;7.24;81.43;99952.38;5011699;28;20438;-80
2021/09/20 10:46:39;;;;;;;;;;;;;;;7.39;81.88;99959.41;5039294;28;19933;-78
2021/09/20 10:49:16;;;;;;;;;;;;;;;7.49;81.14;99962.91;5015774;28;19921;-79
2021/09/20 10:51:41;;;;;;;;;;;;;;;7.44;80.53;99954.25;5028807;28;19968;-78
2021/09/20 10:54:07;;;;;;;;;;;;;;;7.42;80.25;99963.72;5026041;28;20377;-78
2021/09/20 10:56:33;;;;;;;;;;;;;;;7.44;81.26;99953.41;5011276;28;19920;-78
2021/09/20 10:58:58;;;;;;;;;;;;;;;7.49;81.30;99955.16;5011244;28;19925;-78
2021/09/20 11:01:24;;;;;;;;;;;;;;;7.55;81.13;99949.13;5011287;28;19960;-78
2021/09/20 11:03:51;;;;;;;;;;;;;;;7.54;80.90;99953.47;5009092;28;20462;-79
2021/09/20 11:06:20;;;;;;;;;;;;;;;7.49;80.55;99955.16;5044894;28;19965;-78
2021/09/20 11:08:58;;;;;;;;;;;;;;;7.53;80.58;99981.91;5044305;28;20348;-78
2021/09/20 11:11:42;;;;;;;;;;;;;;;7.48;80.67;99958.59;5020388;28;19956;-78
2021/09/20 11:14:12;;;;;;;;;;;;;;;7.27;81.26;99911.84;5031716;28;19924;-77
2021/09/20 11:16:54;;;;;;;;;;;;;;;7.44;80.62;99955.97;5016607;28;20491;-79
2021/09/20 11:19:26;;;;;;;;;;;;;;;7.49;81.19;99947.38;5017809;28;19926;-79
2021/09/20 11:24:34;;;;;;;;;;;;;;;7.52;80.50;99959.47;5015052;28;19933;-79
2021/09/20 11:27:00;;;;;;;;;;;;;;;7.54;81.04;99958.63;5046603;28;19979;-78
2021/09/20 11:29:27;;;;;;;;;;;;;;;7.52;80.67;99965.53;5020732;28;19925;-79
2021/09/20 11:31:53;;;;;;;;;;;;;;;7.48;80.78;99958.59;4984420;28;20320;-78
2021/09/20 11:34:28;;;;;;;;;;;;;;;7.52;81.00;99956.88;5048525;28;19929;-79
2021/09/20 11:37:07;;;;;;;;;;;;;;;7.48;80.88;99961.19;5033614;28;20033;-78
2021/09/20 11:39:43;;;;;;;;;;;;;;;7.62;80.96;99970.75;5023013;28;19963;-78
2021/09/20 11:42:09;;;;;;;;;;;;;;;7.59;80.83;99960.41;5031297;28;19961;-78
2021/09/20 11:44:34;;;;;;;;;;;;;;;7.51;80.52;99963.78;5016884;28;20525;-78
2021/09/20 11:47:00;;;;;;;;;;;;;;;7.45;80.70;99970.66;5016402;28;19995;-80
2021/09/20 11:49:29;;;;;;;;;;;;;;;7.38;80.69;99972.34;5018278;28;20380;-78
2021/09/20 11:51:56;;;;;;;;;;;;;;;7.39;81.09;99979.25;5015919;28;19928;-79
2021/09/20 11:54:30;;;;;;;;;;;;;;;7.35;80.78;99972.31;5021019;28;19929;-78
2021/09/20 11:57:08;;;;;;;;;;;;;;;7.42;81.17;99974.09;5037706;28;19925;-77
2021/09/20 11:59:33;;;;;;;;;;;;;;;7.38;80.79;99959.41;5048222;28;19968;-79
2021/09/20 12:01:59;;;;;;;;;;;;;;;7.36;80.85;99956.78;5018879;28;19961;-79
2021/09/20 12:04:43;;;;;;;;;;;;;;;7.38;81.12;99969.75;5015651;28;19921;-79
2021/09/20 12:07:08;;;;;;;;;;;;;;;7.39;81.35;99962.00;5029489;28;20011;-78
2021/09/20 12:09:37;;;;;;;;;;;;;;;7.41;80.98;99967.16;5017242;28;19920;-79
2021/09/20 12:12:06;;;;;;;;;;;;;;;7.39;80.97;99955.97;5032966;28;20313;-79
2021/09/20 12:14:33;;;;;;;;;;;;;;;7.41;80.87;99951.63;5017402;28;19982;-79
2021/09/20 12:16:59;;;;;;;;;;;;;;;7.48;81.25;99956.00;5030550;28;20106;-79
2021/09/20 12:19:27;;;;;;;;;;;;;;;7.49;80.80;99956.88;5012072;28;20459;-79
2021/09/20 12:22:00;;;;;;;;;;;;;;;7.46;81.32;99957.72;5038225;28;20042;-79
2021/09/20 12:24:25;;;;;;;;;;;;;;;7.52;81.56;99955.16;5046959;28;19921;-80
2021/09/20 12:26:51;;;;;;;;;;;;;;;7.61;81.12;99964.72;5012316;28;19943;-78
2021/09/20 12:29:16;;;;;;;;;;;;;;;7.56;80.72;99969.00;5031359;28;20377;-78
2021/09/20 12:31:43;;;;;;;;;;;;;;;7.53;80.93;99963.78;5013178;28;19979;-78
2021/09/20 12:34:15;;;;;;;;;;;;;;;7.53;80.89;99959.50;5014774;28;19925;-78
2021/09/20 12:36:43;;;;;;;;;;;;;;;7.50;81.30;99962.06;5044101;28;20076;-78
2021/09/20 12:39:14;;;;;;;;;;;;;;;7.44;81.04;99955.97;5014574;28;19925;-80
2021/09/20 12:41:46;;;;;;;;;;;;;;;7.50;81.64;99959.47;5047355;28;19974;-79
2021/09/20 12:44:13;;;;;;;;;;;;;;;7.45;80.74;99966.34;5013423;28;19944;-77
2021/09/20 12:46:39;;;;;;;;;;;;;;;7.44;80.90;99967.19;5012215;28;19969;-76
2021/09/20 12:49:06;;;;;;;;;;;;;;;7.40;80.89;99960.25;5013960;28;19970;-78
2021/09/20 12:51:33;;;;;;;;;;;;;;;7.44;81.65;99969.78;5046970;28;19921;-78
2021/09/20 12:54:00;;;;;;;;;;;;;;;7.46;80.76;99973.25;5012473;28;19922;-77
2021/09/20 12:56:33;;;;;;;;;;;;;;;7.46;81.35;99980.16;5043637;28;19932;-82
2021/09/20 12:59:17;;;;;;;;;;;;;;;7.30;81.04;99945.53;5014143;28;19976;-78
2021/09/20 13:01:47;;;;;;;;;;;;;;;7.38;80.54;99973.19;5045056;28;20501;-78